Time;durP1;ratioP1;P1;durP2;ratioP2;P2;SDS_P1;SDS_P2;PMS_P1;PMS_P2;Temp;Humidity;BMP_temperature;BMP_pressure;BME280_temperature;BME280_humidity;BME280_pressure;Samples;Min_cycle;Max_cycle;Signal;HPM_P1;HPM_P2
2023/03/25 00:01:31;;;;;;;0.00;0.00;;;;;;;10.47;71.54;98739.56;7337947;19;20433;-64
2023/03/25 00:04:02;;;;;;;0.00;0.00;;;;;;;10.45;71.43;98759.69;7345958;19;20833;-64
2023/03/25 00:06:28;;;;;;;0.00;0.00;;;;;;;10.43;71.44;98758.91;7344168;19;20010;-64
2023/03/25 00:08:54;;;;;;;0.10;0.10;;;;;;;10.41;71.71;98752.94;7345724;19;20007;-64
2023/03/25 00:11:20;;;;;;;0.00;0.00;;;;;;;10.38;71.77;98756.53;7340738;19;20031;-64
2023/03/25 00:13:47;;;;;;;0.00;0.00;;;;;;;10.36;71.46;98762.78;7346069;19;20018;-64
2023/03/25 00:16:13;;;;;;;0.00;0.00;;;;;;;10.34;71.55;98775.03;7346888;19;20015;-64
2023/03/25 00:18:38;;;;;;;0.10;0.10;;;;;;;10.33;71.68;98770.75;7344127;19;20444;-64
2023/03/25 00:21:09;;;;;;;0.10;0.10;;;;;;;10.24;71.64;98771.22;7339980;19;20002;-64
2023/03/25 00:23:35;;;;;;;0.00;0.00;;;;;;;10.28;71.57;98788.41;7342822;19;20017;-64
2023/03/25 00:26:02;;;;;;;0.10;0.10;;;;;;;10.25;71.56;98791.22;7344017;19;20022;-59
2023/03/25 00:28:32;;;;;;;0.00;0.00;;;;;;;10.24;71.41;98799.94;7344356;19;20018;-64
2023/03/25 00:31:00;;;;;;;0.00;0.00;;;;;;;10.21;71.61;98798.31;7342212;19;20210;-64
2023/03/25 00:33:27;;;;;;;0.00;0.00;;;;;;;10.07;71.75;98791.19;7344234;19;20007;-64
2023/03/25 00:35:57;;;;;;;0.00;0.00;;;;;;;10.09;71.78;98794.56;7343413;19;20023;-64
2023/03/25 00:38:34;;;;;;;0.00;0.00;;;;;;;10.12;71.99;98798.78;7346089;19;20018;-64
2023/03/25 00:41:24;;;;;;;0.00;0.00;;;;;;;10.12;71.84;98802.22;7344307;19;20631;-64
2023/03/25 00:43:57;;;;;;;0.00;0.00;;;;;;;10.09;71.68;98807.59;7344704;19;20019;-64
2023/03/25 00:46:25;;;;;;;0.00;0.00;;;;;;;9.68;72.14;98751.47;7344010;19;20014;-64
2023/03/25 00:48:51;;;;;;;0.00;0.00;;;;;;;10.03;71.98;98836.59;7345636;19;20014;-64
2023/03/25 00:51:20;;;;;;;0.00;0.00;;;;;;;10.03;72.11;98825.31;7342928;19;20093;-64
2023/03/25 00:53:47;;;;;;;0.10;0.10;;;;;;;10.00;72.57;98817.66;7344820;19;20038;-64
2023/03/25 00:56:13;;;;;;;0.00;0.00;;;;;;;9.99;72.18;98816.81;7344579;19;20992;-64
2023/03/25 00:58:38;;;;;;;0.05;0.05;;;;;;;9.98;72.24;98824.69;7344369;19;20014;-64
2023/03/25 01:01:12;;;;;;;0.00;0.00;;;;;;;9.99;72.59;98831.63;7341385;19;20033;-63
2023/03/25 01:03:44;;;;;;;0.03;0.03;;;;;;;9.97;72.64;98829.06;7340420;19;20014;-64
2023/03/25 01:06:12;;;;;;;0.00;0.00;;;;;;;9.98;72.86;98835.13;7342535;19;20019;-64
2023/03/25 01:08:39;;;;;;;0.10;0.10;;;;;;;9.93;72.71;98832.75;7341940;19;20022;-64
2023/03/25 01:11:05;;;;;;;0.00;0.00;;;;;;;9.98;73.12;98835.97;7341871;19;20051;-64
2023/03/25 01:13:31;;;;;;;0.00;0.00;;;;;;;9.97;72.86;98844.72;7340253;19;20019;-64
2023/03/25 01:15:56;;;;;;;0.10;0.10;;;;;;;10.01;72.96;98835.81;7344547;19;20013;-64
2023/03/25 01:18:22;;;;;;;0.00;0.00;;;;;;;10.02;72.93;98844.50;7342362;19;20036;-64
2023/03/25 01:20:47;;;;;;;0.10;0.10;;;;;;;9.93;73.17;98826.69;7342361;19;20380;-64
2023/03/25 01:23:13;;;;;;;0.00;0.00;;;;;;;10.05;72.84;98852.19;7345332;19;20014;-64
2023/03/25 01:25:38;;;;;;;0.00;0.00;;;;;;;10.04;72.55;98858.31;7343664;19;20010;-64
2023/03/25 01:28:04;;;;;;;0.00;0.00;;;;;;;10.04;72.73;98859.16;7341946;19;20031;-64
2023/03/25 01:30:30;;;;;;;0.00;0.00;;;;;;;9.99;72.34;98847.28;7343872;19;20006;-64
2023/03/25 01:32:55;;;;;;;0.00;0.00;;;;;;;10.06;72.56;98866.91;7342706;19;20094;-64
2023/03/25 01:35:21;;;;;;;0.10;0.10;;;;;;;9.84;72.38;98847.09;7346673;19;20007;-64
2023/03/25 01:37:47;;;;;;;0.00;0.00;;;;;;;10.04;72.44;98866.13;7348172;19;20015;-64
2023/03/25 01:40:18;;;;;;;0.00;0.00;;;;;;;10.04;72.38;98876.56;7345985;19;20010;-64
2023/03/25 01:42:43;;;;;;;0.00;0.00;;;;;;;10.01;72.31;98881.94;7351702;19;20013;-64
2023/03/25 01:45:23;;;;;;;0.00;0.00;;;;;;;10.02;72.27;98881.84;7348057;19;25237;-64
2023/03/25 01:47:55;;;;;;;0.00;0.00;;;;;;;9.98;72.23;98892.50;7346876;19;20019;-64
2023/03/25 01:50:21;;;;;;;0.00;0.00;;;;;;;9.79;72.38;98871.72;7345762;19;20035;-64
2023/03/25 01:52:49;;;;;;;0.00;0.00;;;;;;;9.96;72.09;98905.63;7345726;19;20018;-65
2023/03/25 01:55:16;;;;;;;0.03;0.03;;;;;;;9.93;72.12;98910.13;7348124;19;20010;-64
2023/03/25 01:57:45;;;;;;;0.00;0.00;;;;;;;9.92;72.29;98916.25;7348111;19;20026;-64
2023/03/25 02:00:14;;;;;;;0.05;0.05;;;;;;;9.51;72.33;98865.22;7351283;19;20010;-64
2023/03/25 02:02:41;;;;;;;0.00;0.00;;;;;;;9.90;72.37;98926.78;7351150;19;20057;-64
2023/03/25 02:05:24;;;;;;;0.00;0.00;;;;;;;9.94;72.43;98937.91;7336120;19;20562;-64
2023/03/25 02:07:51;;;;;;;0.10;0.10;;;;;;;9.88;73.03;98936.41;7349455;19;20758;-66
2023/03/25 02:10:18;;;;;;;0.00;0.00;;;;;;;9.90;73.07;98942.41;7347275;19;20030;-64
2023/03/25 02:12:44;;;;;;;0.00;0.00;;;;;;;9.89;72.97;98938.13;7347268;19;20006;-64
2023/03/25 02:15:13;;;;;;;0.00;0.00;;;;;;;9.92;72.50;98935.34;7347734;19;20002;-64
2023/03/25 02:17:59;;;;;;;0.10;0.10;;;;;;;9.89;72.66;98951.16;7349212;19;20963;-61
2023/03/25 02:21:10;;;;;;;0.00;0.00;;;;;;;9.90;72.68;98952.84;7341376;19;20745;-64
2023/03/25 02:24:12;;;;;;;0.03;0.03;;;;;;;9.88;72.95;98959.88;7245947;19;2004457;-64
2023/03/25 02:27:12;;;;;;;0.05;0.05;;;;;;;9.85;72.81;98958.28;7243616;19;2004222;-64
2023/03/25 02:30:22;;;;;;;0.00;0.00;;;;;;;9.84;72.83;98958.38;7248712;19;2004372;-64
2023/03/25 02:33:06;;;;;;;0.08;0.08;;;;;;;9.83;72.97;98972.28;7248069;19;2004392;-64
2023/03/25 02:35:40;;;;;;;0.00;0.00;;;;;;;9.79;73.32;98975.97;7351612;19;20329;-64
2023/03/25 02:38:36;;;;;;;0.00;0.00;;;;;;;9.81;73.39;98972.38;7352397;19;20115;-64
2023/03/25 02:41:12;;;;;;;0.00;0.00;;;;;;;9.78;73.16;98987.31;7249878;19;2005534;-64
2023/03/25 02:44:01;;;;;;;0.00;0.00;;;;;;;9.78;73.36;98982.09;7350622;19;20467;-64
2023/03/25 02:46:28;;;;;;;0.10;0.10;;;;;;;9.78;73.09;98990.78;7352091;19;20014;-65
2023/03/25 02:49:13;;;;;;;0.10;0.10;;;;;;;9.78;73.15;98995.13;7348480;19;20031;-64
2023/03/25 02:51:52;;;;;;;0.00;0.00;;;;;;;9.77;73.24;98993.44;7344983;19;20900;-64
2023/03/25 02:54:19;;;;;;;0.00;0.00;;;;;;;9.76;73.36;99010.00;7354570;19;20010;-64
2023/03/25 02:56:48;;;;;;;0.10;0.10;;;;;;;9.75;73.38;99010.94;7356308;19;20034;-64
2023/03/25 02:59:15;;;;;;;0.10;0.10;;;;;;;9.72;72.92;99018.88;7344242;19;20059;-64
2023/03/25 03:01:41;;;;;;;0.00;0.00;;;;;;;9.65;72.84;99010.50;7357725;19;20035;-64
2023/03/25 03:04:07;;;;;;;0.00;0.00;;;;;;;9.65;72.76;99014.88;7353422;19;20007;-64
2023/03/25 03:06:41;;;;;;;0.03;0.03;;;;;;;9.66;72.63;99032.19;7357007;19;20417;-64
2023/03/25 03:09:28;;;;;;;0.10;0.10;;;;;;;9.62;72.91;99029.72;7347600;19;20027;-64
2023/03/25 03:12:18;;;;;;;0.00;0.00;;;;;;;9.58;72.76;99038.63;7338282;19;20014;-64
2023/03/25 03:14:46;;;;;;;0.10;0.10;;;;;;;9.55;72.58;99036.13;7355295;19;20648;-64
2023/03/25 03:17:18;;;;;;;0.00;0.00;;;;;;;9.51;72.75;99042.38;7357464;19;20331;-64
2023/03/25 03:19:55;;;;;;;0.00;0.00;;;;;;;9.47;72.84;99058.22;7354215;19;20014;-64
2023/03/25 03:22:39;;;;;;;0.03;0.03;;;;;;;9.44;72.66;99051.41;7351572;19;20030;-64
2023/03/25 03:25:20;;;;;;;0.10;0.10;;;;;;;9.40;72.78;99054.22;7350794;19;20014;-64
2023/03/25 03:27:55;;;;;;;0.00;0.00;;;;;;;9.36;72.52;99056.09;7354295;19;20014;-64
2023/03/25 03:30:28;;;;;;;0.00;0.00;;;;;;;9.31;72.88;99068.47;7353124;19;20467;-64
2023/03/25 03:33:24;;;;;;;0.00;0.00;;;;;;;9.30;72.56;99066.78;7355798;19;20014;-64
2023/03/25 03:36:07;;;;;;;0.03;0.03;;;;;;;9.28;72.78;99084.25;7252183;19;2004347;-64
2023/03/25 03:38:38;;;;;;;0.00;0.00;;;;;;;9.24;72.73;99087.91;7352874;19;20046;-64
2023/03/25 03:41:08;;;;;;;0.00;0.00;;;;;;;9.22;72.97;99084.50;7352898;19;20078;-64
2023/03/25 03:43:45;;;;;;;0.00;0.00;;;;;;;9.18;72.59;99089.00;7355204;19;20010;-64
2023/03/25 03:46:21;;;;;;;0.05;0.05;;;;;;;9.15;72.93;99098.72;7354362;19;20010;-64
2023/03/25 03:48:58;;;;;;;0.00;0.00;;;;;;;9.13;72.86;99097.94;7353353;19;20805;-64
2023/03/25 03:51:48;;;;;;;0.00;0.00;;;;;;;9.08;72.99;99101.56;7351122;19;20003;-65
2023/03/25 03:54:22;;;;;;;0.00;0.00;;;;;;;9.05;72.93;99106.06;7352821;19;20085;-64
2023/03/25 03:57:00;;;;;;;0.10;0.10;;;;;;;9.04;72.74;99131.25;7352364;19;20017;-64
2023/03/25 03:59:38;;;;;;;0.00;0.00;;;;;;;9.01;72.92;99118.34;7351667;19;20007;-64
2023/03/25 04:02:23;;;;;;;0.10;0.10;;;;;;;9.00;73.16;99137.50;7355587;19;20013;-64
2023/03/25 04:04:50;;;;;;;0.00;0.00;;;;;;;8.98;72.80;99130.66;7332297;19;20016;-64
2023/03/25 04:07:27;;;;;;;0.00;0.00;;;;;;;8.96;73.04;99133.31;7352760;19;20022;-64
2023/03/25 04:10:13;;;;;;;0.03;0.03;;;;;;;8.96;72.92;99143.72;7355469;19;20474;-64
2023/03/25 04:12:44;;;;;;;0.00;0.00;;;;;;;8.91;73.35;99153.47;7354940;19;20084;-64
2023/03/25 04:15:11;;;;;;;0.00;0.00;;;;;;;8.87;73.01;99141.53;7355537;19;20486;-64
2023/03/25 04:17:36;;;;;;;0.00;0.00;;;;;;;8.77;73.15;99135.00;7353071;19;20027;-61
2023/03/25 04:20:07;;;;;;;0.00;0.00;;;;;;;8.75;73.26;99136.78;7335055;19;20010;-64
2023/03/25 04:22:36;;;;;;;0.00;0.00;;;;;;;8.83;73.08;99155.56;7354037;19;21025;-64
2023/03/25 04:25:04;;;;;;;0.00;0.00;;;;;;;8.82;73.66;99161.69;7354702;19;20026;-64
2023/03/25 04:27:31;;;;;;;0.00;0.00;;;;;;;8.81;73.27;99162.56;7356898;19;20030;-62
2023/03/25 04:29:57;;;;;;;0.10;0.10;;;;;;;8.70;73.36;99155.19;7352465;19;20039;-64
2023/03/25 04:32:23;;;;;;;0.00;0.00;;;;;;;8.75;73.46;99168.03;7351928;19;20018;-64
2023/03/25 04:34:48;;;;;;;0.08;0.08;;;;;;;8.78;73.14;99183.53;7353160;19;20450;-64
2023/03/25 04:37:14;;;;;;;0.00;0.00;;;;;;;8.76;73.36;99180.97;7355245;19;20021;-64
2023/03/25 04:39:39;;;;;;;0.00;0.00;;;;;;;8.75;73.48;99184.47;7355897;19;20039;-64
2023/03/25 04:42:05;;;;;;;0.10;0.10;;;;;;;8.60;73.59;99166.88;7354725;19;20078;-64
2023/03/25 04:44:37;;;;;;;0.05;0.05;;;;;;;8.73;73.48;99193.28;7352583;19;20019;-64
2023/03/25 04:47:04;;;;;;;0.00;0.00;;;;;;;8.70;73.59;99201.19;7352249;19;20014;-64
2023/03/25 04:49:30;;;;;;;0.00;0.00;;;;;;;8.69;73.30;99194.31;7354304;19;20030;-64
2023/03/25 04:51:56;;;;;;;0.00;0.00;;;;;;;8.66;73.76;99202.22;7352177;19;20048;-64
2023/03/25 04:54:22;;;;;;;0.00;0.00;;;;;;;8.65;73.41;99213.53;7356186;19;20012;-64
2023/03/25 04:56:49;;;;;;;0.00;0.00;;;;;;;8.63;73.35;99211.00;7351638;19;20494;-64
2023/03/25 04:59:16;;;;;;;0.00;0.00;;;;;;;8.63;73.85;99220.56;7354370;19;20010;-64
2023/03/25 05:01:44;;;;;;;0.00;0.00;;;;;;;8.63;73.67;99220.56;7355739;19;20435;-64
2023/03/25 05:04:12;;;;;;;0.00;0.00;;;;;;;8.62;73.95;99226.66;7356458;19;20014;-64
2023/03/25 05:06:41;;;;;;;0.10;0.10;;;;;;;8.65;73.73;99234.34;7353235;19;20115;-64
2023/03/25 05:09:12;;;;;;;0.00;0.00;;;;;;;8.56;74.09;99220.78;7361455;19;20707;-64
2023/03/25 05:11:40;;;;;;;0.00;0.00;;;;;;;8.68;74.31;99244.66;7356641;19;20023;-64
2023/03/25 05:14:06;;;;;;;;;;;;;;;8.72;74.00;99247.09;7361542;19;20010;-64
2023/03/25 05:16:32;;;;;;;0.00;0.00;;;;;;;8.70;74.04;99242.84;7365601;19;20056;-64
2023/03/25 05:18:57;;;;;;;0.00;0.00;;;;;;;8.76;74.09;99247.78;7358642;19;20415;-64
2023/03/25 05:21:23;;;;;;;0.00;0.00;;;;;;;8.79;74.20;99265.91;7357429;19;20018;-64
2023/03/25 05:23:48;;;;;;;0.00;0.00;;;;;;;8.81;74.42;99257.13;7359519;19;20509;-64
2023/03/25 05:26:14;;;;;;;0.00;0.00;;;;;;;8.83;74.06;99236.25;7361864;19;20745;-65
2023/03/25 05:28:41;;;;;;;0.00;0.00;;;;;;;8.90;74.35;99255.91;7358759;19;20044;-64
2023/03/25 05:31:09;;;;;;;0.00;0.00;;;;;;;8.91;74.09;99262.81;7362348;19;20018;-64
2023/03/25 05:33:41;;;;;;;0.00;0.00;;;;;;;8.92;73.96;99264.53;7359538;19;20016;-64
2023/03/25 05:36:10;;;;;;;0.00;0.00;;;;;;;8.88;73.70;99259.50;7362836;19;20010;-64
2023/03/25 05:38:36;;;;;;;0.10;0.10;;;;;;;8.92;73.76;99269.75;7355314;19;20475;-64
2023/03/25 05:41:01;;;;;;;0.10;0.10;;;;;;;8.93;73.43;99281.00;7361427;19;20025;-64
2023/03/25 05:43:28;;;;;;;0.00;0.00;;;;;;;8.92;73.89;99277.56;7356752;19;20563;-64
2023/03/25 05:45:53;;;;;;;0.00;0.00;;;;;;;8.91;73.76;99277.59;7362289;19;20014;-64
2023/03/25 05:48:18;;;;;;;0.00;0.00;;;;;;;8.90;73.94;99289.75;7359342;19;20006;-64
2023/03/25 05:50:44;;;;;;;0.10;0.10;;;;;;;8.89;73.78;99285.47;7361237;19;20018;-64
2023/03/25 05:53:11;;;;;;;0.00;0.00;;;;;;;8.90;73.61;99296.72;7358598;19;20005;-64
2023/03/25 05:55:37;;;;;;;0.00;0.00;;;;;;;8.88;73.67;99294.19;7359836;19;20265;-64
2023/03/25 05:58:03;;;;;;;0.00;0.00;;;;;;;8.81;73.65;99284.91;7358723;19;20010;-64
2023/03/25 06:00:29;;;;;;;0.00;0.00;;;;;;;8.87;73.87;99289.91;7362031;19;20479;-64
2023/03/25 06:02:55;;;;;;;0.00;0.00;;;;;;;8.85;73.78;99299.50;7359842;19;20024;-64
2023/03/25 06:05:24;;;;;;;0.00;0.00;;;;;;;8.82;73.51;99302.25;7354733;19;20570;-64
2023/03/25 06:07:54;;;;;;;0.00;0.00;;;;;;;8.80;73.64;99302.28;7358491;19;20003;-64
2023/03/25 06:10:21;;;;;;;0.05;0.05;;;;;;;8.79;73.56;99310.16;7356135;19;20002;-64
2023/03/25 06:12:47;;;;;;;0.03;0.03;;;;;;;8.54;73.73;99269.44;7361261;19;20022;-64
2023/03/25 06:15:16;;;;;;;0.00;0.00;;;;;;;8.76;73.89;99313.72;7360410;19;20003;-64
2023/03/25 06:17:45;;;;;;;0.00;0.00;;;;;;;8.75;73.73;99329.38;7354524;19;20460;-65
2023/03/25 06:20:12;;;;;;;0.10;0.10;;;;;;;8.75;73.83;99334.59;7356210;19;20025;-64
2023/03/25 06:22:43;;;;;;;0.00;0.00;;;;;;;8.75;74.22;99345.00;7359095;19;20024;-65
2023/03/25 06:25:11;;;;;;;0.10;0.10;;;;;;;8.73;74.03;99349.44;7361919;19;20013;-64
2023/03/25 06:27:39;;;;;;;0.00;0.00;;;;;;;8.72;74.43;99339.94;7353467;19;20018;-64
2023/03/25 06:30:10;;;;;;;0.10;0.10;;;;;;;8.76;74.40;99354.50;7356830;19;20014;-64
2023/03/25 06:32:36;;;;;;;0.00;0.00;;;;;;;8.78;74.58;99360.53;7358743;19;20014;-64
2023/03/25 06:35:04;;;;;;;0.00;0.00;;;;;;;8.80;74.59;99353.50;7356814;19;20223;-63
2023/03/25 06:37:29;;;;;;;0.08;0.08;;;;;;;8.86;74.68;99352.41;7352803;19;20017;-64
2023/03/25 06:39:55;;;;;;;0.00;0.00;;;;;;;8.90;74.71;99354.84;7356593;19;20007;-64
2023/03/25 06:42:22;;;;;;;0.00;0.00;;;;;;;8.94;74.83;99355.59;7360007;19;20022;-64
2023/03/25 06:44:48;;;;;;;0.00;0.00;;;;;;;8.97;74.66;99353.72;7359023;19;20038;-64
2023/03/25 06:47:14;;;;;;;0.00;0.00;;;;;;;9.00;74.75;99361.41;7357503;19;20002;-64
2023/03/25 06:49:40;;;;;;;0.10;0.10;;;;;;;9.03;75.03;99382.13;7358016;19;20014;-64
2023/03/25 06:52:05;;;;;;;0.00;0.00;;;;;;;9.06;74.94;99376.78;7358271;19;20054;-64
2023/03/25 06:54:30;;;;;;;0.10;0.10;;;;;;;9.10;75.01;99375.78;7353934;19;20022;-64
2023/03/25 06:56:56;;;;;;;0.08;0.08;;;;;;;9.15;74.93;99385.19;7354855;19;20479;-64
2023/03/25 06:59:21;;;;;;;0.00;0.00;;;;;;;9.04;74.75;99368.19;7343172;19;20013;-64
2023/03/25 07:01:47;;;;;;;0.00;0.00;;;;;;;9.19;74.80;99395.41;7356476;19;20010;-64
2023/03/25 07:04:12;;;;;;;0.03;0.03;;;;;;;9.24;75.21;99397.84;7354298;19;20691;-64
2023/03/25 07:06:37;;;;;;;0.10;0.10;;;;;;;9.26;74.74;99407.28;7356052;19;20014;-64
2023/03/25 07:09:03;;;;;;;0.10;0.10;;;;;;;9.28;75.01;99404.66;7356474;19;20023;-64
2023/03/25 07:11:31;;;;;;;0.00;0.00;;;;;;;9.38;75.35;99413.81;7355911;19;20605;-64
2023/03/25 07:13:56;;;;;;;;;;;;;;;9.45;75.20;99425.69;7356879;19;20010;-64
2023/03/25 07:16:22;;;;;;;0.00;0.00;;;;;;;9.46;75.29;99416.94;7353790;19;19915;-65
2023/03/25 07:18:49;;;;;;;0.00;0.00;;;;;;;9.55;75.13;99437.44;7351849;19;20526;-64
2023/03/25 07:21:15;;;;;;;0.00;0.00;;;;;;;9.58;75.06;99437.34;7354403;19;20153;-64
2023/03/25 07:23:41;;;;;;;0.00;0.00;;;;;;;9.62;75.07;99445.88;7351977;19;20556;-64
2023/03/25 07:26:06;;;;;;;0.10;0.10;;;;;;;9.64;74.90;99441.47;7355419;19;22328;-64
2023/03/25 07:28:32;;;;;;;0.10;0.10;;;;;;;9.69;75.16;99451.72;7353416;19;20090;-64
2023/03/25 07:30:57;;;;;;;0.05;0.05;;;;;;;9.72;75.15;99447.22;7347226;19;20301;-65
2023/03/25 07:33:23;;;;;;;0.10;0.10;;;;;;;9.78;74.96;99453.94;7353493;19;20964;-64
2023/03/25 07:35:48;;;;;;;0.10;0.10;;;;;;;9.74;75.29;99436.75;7356793;19;20586;-64
2023/03/25 07:38:14;;;;;;;0.00;0.00;;;;;;;9.90;74.97;99463.91;7348340;19;20014;-64
2023/03/25 07:40:39;;;;;;;0.10;0.10;;;;;;;9.95;75.24;99467.19;7352059;19;20009;-64
2023/03/25 07:43:05;;;;;;;0.00;0.00;;;;;;;10.00;75.07;99469.59;7348965;19;20023;-64
2023/03/25 07:45:30;;;;;;;0.00;0.00;;;;;;;10.04;75.13;99477.25;7355448;19;20021;-64
2023/03/25 07:47:56;;;;;;;0.10;0.10;;;;;;;10.09;75.04;99475.31;7352370;19;20010;-64
2023/03/25 07:50:22;;;;;;;0.05;0.05;;;;;;;10.13;75.12;99476.00;7353902;19;20612;-64
2023/03/25 07:52:48;;;;;;;0.10;0.10;;;;;;;10.20;74.67;99476.63;7350747;19;20010;-64
2023/03/25 07:55:13;;;;;;;0.00;0.00;;;;;;;10.22;74.50;99480.00;7353923;19;20119;-64
2023/03/25 07:57:40;;;;;;;0.10;0.10;;;;;;;10.20;74.18;99466.19;7349560;19;20015;-64
2023/03/25 08:00:06;;;;;;;0.00;0.00;;;;;;;10.28;74.06;99490.22;7350527;19;20569;-64
2023/03/25 08:02:32;;;;;;;0.00;0.00;;;;;;;10.30;74.18;99499.69;7353961;19;20002;-64
2023/03/25 08:04:57;;;;;;;0.00;0.00;;;;;;;10.34;74.77;99498.66;7355007;19;20009;-64
2023/03/25 08:07:23;;;;;;;0.00;0.00;;;;;;;10.35;74.73;99491.69;7346093;19;20845;-64
2023/03/25 08:09:48;;;;;;;0.10;0.10;;;;;;;10.46;74.67;99510.34;7351799;19;20022;-64
2023/03/25 08:12:14;;;;;;;0.00;0.00;;;;;;;10.51;74.26;99497.97;7354089;19;20010;-64
2023/03/25 08:14:39;;;;;;;0.10;0.10;;;;;;;10.57;74.10;99508.13;7330537;19;20047;-64
2023/03/25 08:17:05;;;;;;;0.10;0.10;;;;;;;10.22;74.31;99452.16;7350262;19;20014;-64
2023/03/25 08:19:31;;;;;;;0.08;0.08;;;;;;;10.68;74.24;99512.91;7352043;19;20007;-64
2023/03/25 08:21:56;;;;;;;0.00;0.00;;;;;;;10.74;74.38;99525.69;7354101;19;20016;-64
2023/03/25 08:24:23;;;;;;;0.10;0.10;;;;;;;10.79;74.17;99522.91;7346481;19;20006;-64
2023/03/25 08:26:49;;;;;;;0.05;0.05;;;;;;;10.84;73.42;99536.59;7353145;19;20803;-64
2023/03/25 08:29:16;;;;;;;0.10;0.10;;;;;;;10.91;74.04;99548.50;7347067;19;20006;-64
2023/03/25 08:31:45;;;;;;;0.00;0.00;;;;;;;10.91;73.31;99538.06;7350748;19;20481;-64
2023/03/25 08:34:12;;;;;;;0.00;0.00;;;;;;;11.07;73.93;99543.47;7347417;19;20010;-64
2023/03/25 08:36:40;;;;;;;0.00;0.00;;;;;;;11.18;74.44;99557.75;7352839;19;21046;-64
2023/03/25 08:39:10;;;;;;;0.10;0.10;;;;;;;11.23;73.47;99549.72;7345182;19;20460;-64
2023/03/25 08:41:38;;;;;;;0.10;0.10;;;;;;;11.16;73.17;99549.16;7355111;19;20549;-64
2023/03/25 08:44:06;;;;;;;0.05;0.05;;;;;;;11.29;73.06;99569.50;7361428;19;20515;-64
2023/03/25 08:46:31;;;;;;;0.10;0.10;;;;;;;11.34;72.90;99572.78;7367957;19;20018;-65
2023/03/25 08:48:57;;;;;;;0.10;0.10;;;;;;;11.35;73.23;99564.00;7366028;19;20352;-64
2023/03/25 08:51:22;;;;;;;0.00;0.00;;;;;;;11.41;72.79;99576.84;7362351;19;20014;-64
2023/03/25 08:53:47;;;;;;;0.00;0.00;;;;;;;11.45;72.78;99578.38;7366244;19;20031;-64
2023/03/25 08:56:13;;;;;;;0.10;0.10;;;;;;;11.50;72.67;99573.78;7366538;19;20007;-64
2023/03/25 08:58:38;;;;;;;0.10;0.10;;;;;;;11.57;73.28;99590.91;7364864;19;20014;-63
2023/03/25 09:01:05;;;;;;;0.03;0.03;;;;;;;11.62;72.83;99588.94;7357416;19;20007;-64
2023/03/25 09:03:31;;;;;;;0.00;0.00;;;;;;;11.61;72.86;99576.78;7366073;19;20070;-64
2023/03/25 09:05:56;;;;;;;0.03;0.03;;;;;;;11.73;72.64;99592.84;7366077;19;20130;-64
2023/03/25 09:08:22;;;;;;;0.00;0.00;;;;;;;11.81;72.95;99593.34;7361019;19;20024;-64
2023/03/25 09:10:47;;;;;;;0.10;0.10;;;;;;;11.90;72.18;99606.88;7367978;19;20514;-64
2023/03/25 09:13:15;;;;;;;0.10;0.10;;;;;;;12.01;72.48;99601.16;7364154;19;20010;-63
2023/03/25 09:15:42;;;;;;;0.10;0.10;;;;;;;12.12;72.78;99598.91;7362775;19;19999;-58
2023/03/25 09:18:09;;;;;;;0.00;0.00;;;;;;;12.23;71.88;99608.88;7367946;19;20862;-59
2023/03/25 09:20:34;;;;;;;0.00;0.00;;;;;;;12.37;70.82;99608.22;7366516;19;20462;-58
2023/03/25 09:22:59;;;;;;;0.10;0.10;;;;;;;12.53;71.25;99613.56;7367085;19;20003;-58
2023/03/25 09:25:25;;;;;;;0.08;0.08;;;;;;;12.67;70.12;99612.00;7364676;19;20022;-58
2023/03/25 09:27:50;;;;;;;0.10;0.10;;;;;;;12.90;70.80;99617.84;7366673;19;20019;-58
2023/03/25 09:30:16;;;;;;;0.10;0.10;;;;;;;13.09;69.67;99623.88;7364138;19;22865;-59
2023/03/25 09:32:41;;;;;;;0.05;0.05;;;;;;;13.21;69.01;99630.28;7368659;19;20036;-58
2023/03/25 09:35:07;;;;;;;0.10;0.10;;;;;;;13.42;70.37;99636.22;7361341;19;20011;-59
2023/03/25 09:37:36;;;;;;;0.10;0.10;;;;;;;13.53;68.83;99628.66;7360048;19;20018;-59
2023/03/25 09:40:03;;;;;;;0.03;0.03;;;;;;;13.63;68.22;99614.13;7368466;19;20026;-58
2023/03/25 09:43:13;;;;;;;0.00;0.00;;;;;;;14.02;69.84;99632.16;7364351;19;20018;-59
2023/03/25 09:45:41;;;;;;;0.10;0.10;;;;;;;14.24;67.70;99629.22;7260943;19;2004233;-58
2023/03/25 09:48:24;;;;;;;;;;;;;;;14.56;69.84;99641.53;7366578;19;20006;-59
2023/03/25 09:50:50;;;;;;;0.00;0.00;;;;;;;14.71;66.78;99628.38;7364802;19;19922;-58
2023/03/25 09:53:41;;;;;;;0.10;0.10;;;;;;;14.98;67.33;99628.56;7356017;19;20036;-59
2023/03/25 09:56:15;;;;;;;0.10;0.10;;;;;;;15.13;64.92;99633.88;7254289;19;2004474;-59
2023/03/25 09:59:10;;;;;;;0.10;0.10;;;;;;;15.29;66.59;99632.88;7336566;19;20007;-58
2023/03/25 10:01:36;;;;;;;0.00;0.00;;;;;;;15.27;62.38;99633.91;7255685;19;2004272;-58
2023/03/25 10:04:14;;;;;;;0.10;0.10;;;;;;;15.26;64.10;99619.06;7348532;19;20474;-58
2023/03/25 10:06:56;;;;;;;0.10;0.10;;;;;;;15.29;63.42;99632.88;7360354;19;20014;-58
2023/03/25 10:09:50;;;;;;;0.10;0.10;;;;;;;15.18;63.49;99640.56;7356672;19;20042;-58
2023/03/25 10:12:40;;;;;;;0.10;0.10;;;;;;;15.11;62.47;99644.50;7257881;19;2004487;-59
2023/03/25 10:15:24;;;;;;;0.10;0.10;;;;;;;15.02;62.58;99640.59;7254247;19;2005157;-59
2023/03/25 10:17:58;;;;;;;0.10;0.10;;;;;;;14.94;62.70;99639.34;7359532;19;20804;-58
2023/03/25 10:20:39;;;;;;;0.10;0.10;;;;;;;14.90;62.38;99648.34;7359929;19;20010;-59
2023/03/25 10:23:12;;;;;;;0.10;0.10;;;;;;;14.74;61.09;99640.47;7358761;19;20019;-58
2023/03/25 10:25:44;;;;;;;0.10;0.10;;;;;;;14.77;60.39;99662.19;7356166;19;20522;-58
2023/03/25 10:28:26;;;;;;;0.05;0.05;;;;;;;14.77;60.51;99656.94;7359210;19;20756;-59
2023/03/25 10:30:52;;;;;;;0.03;0.03;;;;;;;14.82;62.30;99659.31;7354894;19;20377;-58
2023/03/25 10:33:28;;;;;;;0.10;0.10;;;;;;;14.90;60.70;99669.38;7358824;19;20501;-59
2023/03/25 10:35:57;;;;;;;0.00;0.00;;;;;;;14.94;60.78;99669.09;7357249;19;20014;-59
2023/03/25 10:38:23;;;;;;;0.00;0.00;;;;;;;14.93;59.65;99669.19;7351678;19;20010;-58
2023/03/25 10:40:52;;;;;;;0.10;0.10;;;;;;;15.12;59.21;99683.00;7356860;19;20100;-58
2023/03/25 10:43:23;;;;;;;0.00;0.00;;;;;;;15.24;59.56;99692.78;7356356;19;20015;-58
2023/03/25 10:45:52;;;;;;;0.10;0.10;;;;;;;15.49;58.16;99696.63;7356511;19;20014;-59
2023/03/25 10:48:20;;;;;;;0.10;0.10;;;;;;;15.63;58.62;99694.06;7356633;19;20772;-59
2023/03/25 10:50:47;;;;;;;0.10;0.10;;;;;;;15.76;59.51;99673.09;7356582;19;20045;-59
2023/03/25 10:53:25;;;;;;;0.10;0.10;;;;;;;16.15;60.31;99690.03;7356469;19;20343;-58
2023/03/25 10:55:55;;;;;;;;;;;;;;;16.44;61.84;99696.13;7360939;19;20010;-58
2023/03/25 10:58:21;;;;;;;0.10;0.10;;;;;;;16.59;56.03;99696.00;7353135;19;19931;-59
2023/03/25 11:00:47;;;;;;;0.10;0.10;;;;;;;16.84;55.79;99695.31;7355834;19;20010;-58
2023/03/25 11:03:23;;;;;;;0.10;0.10;;;;;;;17.02;55.07;99702.97;7354431;19;20484;-58
2023/03/25 11:05:50;;;;;;;0.10;0.10;;;;;;;17.11;53.49;99697.09;7353493;19;20010;-58
2023/03/25 11:08:20;;;;;;;0.10;0.10;;;;;;;17.33;54.25;99692.06;7354510;19;20026;-59
2023/03/25 11:10:54;;;;;;;0.10;0.10;;;;;;;17.51;52.39;99708.50;7354809;19;20025;-58
2023/03/25 11:13:26;;;;;;;0.10;0.10;;;;;;;17.76;53.78;99694.50;7356379;19;20019;-58
2023/03/25 11:15:55;;;;;;;0.10;0.10;;;;;;;17.93;50.75;99695.97;7357625;19;20015;-59
2023/03/25 11:18:34;;;;;;;0.00;0.00;;;;;;;18.08;52.25;99678.22;7355076;19;20018;-59
2023/03/25 11:21:04;;;;;;;0.10;0.10;;;;;;;18.21;48.86;99697.56;7359249;19;21011;-58
2023/03/25 11:23:33;;;;;;;0.10;0.10;;;;;;;18.27;49.99;99685.72;7356388;19;20044;-59
2023/03/25 11:26:23;;;;;;;0.10;0.10;;;;;;;18.39;52.83;99698.03;7358806;19;20713;-59
2023/03/25 11:29:01;;;;;;;0.10;0.10;;;;;;;18.60;50.84;99703.59;7354973;19;20029;-59
2023/03/25 11:31:32;;;;;;;0.00;0.00;;;;;;;18.78;49.14;99699.66;7357244;19;20672;-59
2023/03/25 11:34:09;;;;;;;0.10;0.10;;;;;;;19.06;50.91;99702.91;7356948;19;20046;-58
2023/03/25 11:36:36;;;;;;;;;;;;;;;19.49;53.35;99689.13;7358371;19;21055;-59
2023/03/25 11:39:17;;;;;;;0.10;0.10;;;;;;;19.84;50.21;99699.72;7356151;19;19926;-59
2023/03/25 11:41:42;;;;;;;0.10;0.10;;;;;;;20.07;47.69;99689.97;7355073;19;21274;-59
2023/03/25 11:44:21;;;;;;;0.10;0.10;;;;;;;20.46;49.68;99704.53;7350166;19;20010;-58
2023/03/25 11:46:51;;;;;;;0.10;0.10;;;;;;;20.63;47.65;99692.59;7358449;19;20332;-59
2023/03/25 11:49:21;;;;;;;0.00;0.00;;;;;;;20.93;46.79;99679.53;7357147;19;20422;-59
2023/03/25 11:51:50;;;;;;;0.10;0.10;;;;;;;21.14;45.80;99678.72;7358006;19;20319;-59
2023/03/25 11:54:17;;;;;;;0.10;0.10;;;;;;;21.44;44.19;99694.78;7351147;19;20633;-59